sensor_id;sensor_type;location;lat;lon;timestamp;pressure;altitude;pressure_sealevel;temperature;humidity
10135;BME280;5107;48.850;8.924;2023-08-17T00:00:48;96976.50;;;20.40;95.27
10135;BME280;5107;48.850;8.924;2023-08-17T00:03:13;96991.13;;;20.38;94.35
10135;BME280;5107;48.850;8.924;2023-08-17T00:05:39;96983.97;;;20.32;95.04
10135;BME280;5107;48.850;8.924;2023-08-17T00:08:05;96975.66;;;20.22;95.79
10135;BME280;5107;48.850;8.924;2023-08-17T00:10:30;96975.97;;;20.14;96.67
10135;BME280;5107;48.850;8.924;2023-08-17T00:12:56;96971.13;;;20.04;97.56
10135;BME280;5107;48.850;8.924;2023-08-17T00:15:21;96978.63;;;19.95;98.10
10135;BME280;5107;48.850;8.924;2023-08-17T00:17:46;96978.50;;;19.90;98.82
10135;BME280;5107;48.850;8.924;2023-08-17T00:20:12;96968.47;;;19.86;98.93
10135;BME280;5107;48.850;8.924;2023-08-17T00:22:38;96971.41;;;19.78;99.40
10135;BME280;5107;48.850;8.924;2023-08-17T00:25:04;96975.19;;;19.70;100.00
10135;BME280;5107;48.850;8.924;2023-08-17T00:27:31;96974.78;;;19.91;99.17
10135;BME280;5107;48.850;8.924;2023-08-17T00:29:57;96979.75;;;19.88;98.88
10135;BME280;5107;48.850;8.924;2023-08-17T00:32:22;96982.56;;;19.75;98.86
10135;BME280;5107;48.850;8.924;2023-08-17T00:34:47;96968.28;;;19.62;98.93
10135;BME280;5107;48.850;8.924;2023-08-17T00:37:13;96975.75;;;19.54;99.40
10135;BME280;5107;48.850;8.924;2023-08-17T00:39:38;96965.97;;;19.48;100.00
10135;BME280;5107;48.850;8.924;2023-08-17T00:42:04;96965.91;;;19.54;100.00
10135;BME280;5107;48.850;8.924;2023-08-17T00:44:29;96972.00;;;19.61;100.00
10135;BME280;5107;48.850;8.924;2023-08-17T00:46:55;96963.25;;;19.73;98.88
10135;BME280;5107;48.850;8.924;2023-08-17T00:49:20;96963.78;;;19.81;98.38
10135;BME280;5107;48.850;8.924;2023-08-17T00:51:46;96961.56;;;19.78;97.62
10135;BME280;5107;48.850;8.924;2023-08-17T00:54:11;96958.22;;;19.83;97.48
10135;BME280;5107;48.850;8.924;2023-08-17T00:56:37;96956.13;;;19.85;97.01
10135;BME280;5107;48.850;8.924;2023-08-17T00:59:03;96952.13;;;19.76;97.23
10135;BME280;5107;48.850;8.924;2023-08-17T01:01:28;96953.69;;;19.65;97.75
10135;BME280;5107;48.850;8.924;2023-08-17T01:03:53;96955.91;;;19.50;97.79
10135;BME280;5107;48.850;8.924;2023-08-17T01:06:19;96950.56;;;19.50;98.79
10135;BME280;5107;48.850;8.924;2023-08-17T01:08:44;96956.03;;;19.55;98.85
10135;BME280;5107;48.850;8.924;2023-08-17T01:13:46;96957.72;;;19.74;97.07
10135;BME280;5107;48.850;8.924;2023-08-17T01:16:18;96955.78;;;19.81;96.37
10135;BME280;5107;48.850;8.924;2023-08-17T01:18:46;96942.13;;;19.89;95.52
10135;BME280;5107;48.850;8.924;2023-08-17T01:21:14;96949.16;;;19.84;95.93
10135;BME280;5107;48.850;8.924;2023-08-17T01:23:44;96941.22;;;19.77;96.44
10135;BME280;5107;48.850;8.924;2023-08-17T01:26:10;96956.13;;;19.85;97.00
10135;BME280;5107;48.850;8.924;2023-08-17T01:28:35;96949.84;;;19.97;96.46
10135;BME280;5107;48.850;8.924;2023-08-17T01:31:07;96950.88;;;19.96;96.65
10135;BME280;5107;48.850;8.924;2023-08-17T01:33:45;96950.88;;;19.96;96.79
10135;BME280;5107;48.850;8.924;2023-08-17T01:36:20;96949.16;;;19.84;97.55
10135;BME280;5107;48.850;8.924;2023-08-17T01:38:46;96948.81;;;19.80;97.39
10135;BME280;5107;48.850;8.924;2023-08-17T01:41:12;96955.00;;;19.56;97.68
10135;BME280;5107;48.850;8.924;2023-08-17T01:43:41;96957.91;;;19.54;99.02
10135;BME280;5107;48.850;8.924;2023-08-17T01:46:15;96958.50;;;19.56;98.90
10135;BME280;5107;48.850;8.924;2023-08-17T01:48:42;96954.25;;;19.67;99.56
10135;BME280;5107;48.850;8.924;2023-08-17T01:51:08;96959.16;;;19.70;99.01
10135;BME280;5107;48.850;8.924;2023-08-17T01:53:33;96954.34;;;19.79;97.09
10135;BME280;5107;48.850;8.924;2023-08-17T01:55:59;96946.13;;;19.80;98.21
10135;BME280;5107;48.850;8.924;2023-08-17T01:58:24;96944.72;;;19.78;99.48
10135;BME280;5107;48.850;8.924;2023-08-17T02:00:49;96943.47;;;19.80;100.00
10135;BME280;5107;48.850;8.924;2023-08-17T02:03:14;96950.88;;;19.78;100.00
10135;BME280;5107;48.850;8.924;2023-08-17T02:05:44;96942.50;;;19.75;100.00
10135;BME280;5107;48.850;8.924;2023-08-17T02:08:10;96943.47;;;19.80;100.00
10135;BME280;5107;48.850;8.924;2023-08-17T02:10:36;96938.72;;;19.82;100.00
10135;BME280;5107;48.850;8.924;2023-08-17T02:13:01;96932.25;;;19.90;99.44
10135;BME280;5107;48.850;8.924;2023-08-17T02:15:26;96930.25;;;19.85;98.78
10135;BME280;5107;48.850;8.924;2023-08-17T02:17:52;96930.25;;;19.85;98.71
10135;BME280;5107;48.850;8.924;2023-08-17T02:20:17;96927.72;;;19.90;99.26
10135;BME280;5107;48.850;8.924;2023-08-17T02:22:42;96931.88;;;20.04;98.43
10135;BME280;5107;48.850;8.924;2023-08-17T02:25:08;96936.00;;;20.19;97.01
10135;BME280;5107;48.850;8.924;2023-08-17T02:27:34;96943.00;;;20.20;96.14
10135;BME280;5107;48.850;8.924;2023-08-17T02:29:59;96924.50;;;20.18;97.01
10135;BME280;5107;48.850;8.924;2023-08-17T02:32:24;96919.97;;;20.19;97.33
10135;BME280;5107;48.850;8.924;2023-08-17T02:34:49;96921.91;;;20.30;95.43
10135;BME280;5107;48.850;8.924;2023-08-17T02:37:15;96916.47;;;20.36;95.68
10135;BME280;5107;48.850;8.924;2023-08-17T02:39:40;96911.81;;;20.32;96.29
10135;BME280;5107;48.850;8.924;2023-08-17T02:42:05;96909.28;;;20.19;96.86
10135;BME280;5107;48.850;8.924;2023-08-17T02:44:31;96905.88;;;20.12;97.65
10135;BME280;5107;48.850;8.924;2023-08-17T02:46:56;96901.78;;;20.09;98.73
10135;BME280;5107;48.850;8.924;2023-08-17T02:49:21;96902.63;;;20.09;99.33
10135;BME280;5107;48.850;8.924;2023-08-17T02:51:47;96902.56;;;20.16;98.67
10135;BME280;5107;48.850;8.924;2023-08-17T02:54:12;96902.16;;;20.31;97.44
10135;BME280;5107;48.850;8.924;2023-08-17T02:56:37;96900.81;;;20.22;97.41
10135;BME280;5107;48.850;8.924;2023-08-17T02:59:03;96895.91;;;20.19;97.92
10135;BME280;5107;48.850;8.924;2023-08-17T03:01:28;96903.41;;;20.28;96.80
10135;BME280;5107;48.850;8.924;2023-08-17T03:03:55;96896.50;;;20.39;97.20
10135;BME280;5107;48.850;8.924;2023-08-17T03:06:20;96891.75;;;20.41;97.81
10135;BME280;5107;48.850;8.924;2023-08-17T03:08:45;96897.09;;;20.41;98.54
10135;BME280;5107;48.850;8.924;2023-08-17T03:11:11;96898.59;;;20.37;100.00
10135;BME280;5107;48.850;8.924;2023-08-17T03:13:36;96885.13;;;20.43;100.00
10135;BME280;5107;48.850;8.924;2023-08-17T03:16:01;96890.16;;;20.52;99.99
10135;BME280;5107;48.850;8.924;2023-08-17T03:18:27;96880.41;;;20.57;100.00
10135;BME280;5107;48.850;8.924;2023-08-17T03:20:52;96875.06;;;20.57;99.16
10135;BME280;5107;48.850;8.924;2023-08-17T03:23:17;96876.81;;;20.63;98.52
10135;BME280;5107;48.850;8.924;2023-08-17T03:25:43;96877.16;;;20.55;97.93
10135;BME280;5107;48.850;8.924;2023-08-17T03:28:08;96881.31;;;20.51;98.13
10135;BME280;5107;48.850;8.924;2023-08-17T03:30:34;96879.81;;;20.55;99.28
10135;BME280;5107;48.850;8.924;2023-08-17T03:32:59;96881.94;;;20.65;98.78
10135;BME280;5107;48.850;8.924;2023-08-17T03:35:24;96884.84;;;20.63;97.98
10135;BME280;5107;48.850;8.924;2023-08-17T03:37:50;96881.56;;;20.61;98.35
10135;BME280;5107;48.850;8.924;2023-08-17T03:40:15;96881.13;;;20.64;98.36
10135;BME280;5107;48.850;8.924;2023-08-17T03:42:40;96880.41;;;20.57;98.06
10135;BME280;5107;48.850;8.924;2023-08-17T03:45:06;96879.03;;;20.66;97.87
10135;BME280;5107;48.850;8.924;2023-08-17T03:47:32;96882.41;;;20.62;97.32
10135;BME280;5107;48.850;8.924;2023-08-17T03:49:57;96877.88;;;20.62;97.90
10135;BME280;5107;48.850;8.924;2023-08-17T03:52:23;96875.28;;;20.56;98.15
10135;BME280;5107;48.850;8.924;2023-08-17T03:54:48;96882.94;;;20.52;99.59
10135;BME280;5107;48.850;8.924;2023-08-17T03:57:13;96899.34;;;20.56;99.46
10135;BME280;5107;48.850;8.924;2023-08-17T03:59:39;96897.63;;;20.61;99.73
10135;BME280;5107;48.850;8.924;2023-08-17T04:02:04;96898.53;;;20.55;97.72
10135;BME280;5107;48.850;8.924;2023-08-17T04:04:29;96903.28;;;20.53;98.71
10135;BME280;5107;48.850;8.924;2023-08-17T04:06:55;96901.13;;;20.62;99.55
10135;BME280;5107;48.850;8.924;2023-08-17T04:09:20;96899.25;;;20.62;96.54
10135;BME280;5107;48.850;8.924;2023-08-17T04:11:45;96904.50;;;20.57;96.33
10135;BME280;5107;48.850;8.924;2023-08-17T04:14:11;96903.19;;;20.48;97.50
10135;BME280;5107;48.850;8.924;2023-08-17T04:16:37;96901.84;;;20.39;98.98
10135;BME280;5107;48.850;8.924;2023-08-17T04:19:02;96905.13;;;20.23;99.09
10135;BME280;5107;48.850;8.924;2023-08-17T04:21:28;96908.84;;;20.22;99.86
10135;BME280;5107;48.850;8.924;2023-08-17T04:23:53;96909.28;;;20.19;99.55
10135;BME280;5107;48.850;8.924;2023-08-17T04:26:19;96906.47;;;20.14;100.00
10135;BME280;5107;48.850;8.924;2023-08-17T04:28:44;96907.22;;;20.02;100.00
10135;BME280;5107;48.850;8.924;2023-08-17T04:31:10;96912.88;;;19.94;99.91
10135;BME280;5107;48.850;8.924;2023-08-17T04:33:35;96913.69;;;20.13;100.00
10135;BME280;5107;48.850;8.924;2023-08-17T04:36:00;96923.03;;;20.22;99.15
10135;BME280;5107;48.850;8.924;2023-08-17T04:38:26;96924.06;;;20.21;99.27
10135;BME280;5107;48.850;8.924;2023-08-17T04:40:51;96930.66;;;20.19;98.82
10135;BME280;5107;48.850;8.924;2023-08-17T04:43:17;96933.94;;;20.21;99.15
10135;BME280;5107;48.850;8.924;2023-08-17T04:45:42;96926.22;;;20.31;99.45
10135;BME280;5107;48.850;8.924;2023-08-17T04:48:08;96919.66;;;20.27;98.43
10135;BME280;5107;48.850;8.924;2023-08-17T04:50:33;96924.94;;;20.33;97.74
10135;BME280;5107;48.850;8.924;2023-08-17T04:52:58;96926.81;;;20.33;97.80
10135;BME280;5107;48.850;8.924;2023-08-17T04:55:24;96923.53;;;20.31;96.92
10135;BME280;5107;48.850;8.924;2023-08-17T04:57:49;96925.69;;;20.22;97.59
10135;BME280;5107;48.850;8.924;2023-08-17T05:00:15;96935.19;;;20.18;97.74
10135;BME280;5107;48.850;8.924;2023-08-17T05:02:41;96928.75;;;20.07;98.24
10135;BME280;5107;48.850;8.924;2023-08-17T05:05:07;96921.91;;;20.12;100.00
10135;BME280;5107;48.850;8.924;2023-08-17T05:07:33;96930.25;;;20.03;99.30
10135;BME280;5107;48.850;8.924;2023-08-17T05:09:58;96925.13;;;20.02;99.09
10135;BME280;5107;48.850;8.924;2023-08-17T05:12:24;96927.44;;;19.98;99.05
10135;BME280;5107;48.850;8.924;2023-08-17T05:14:49;96929.06;;;19.99;98.46
10135;BME280;5107;48.850;8.924;2023-08-17T05:17:14;96930.94;;;19.99;98.25
10135;BME280;5107;48.850;8.924;2023-08-17T05:19:39;96926.41;;;19.99;97.94
10135;BME280;5107;48.850;8.924;2023-08-17T05:22:10;96935.28;;;19.93;98.77
10135;BME280;5107;48.850;8.924;2023-08-17T05:24:36;96929.72;;;19.95;99.45
10135;BME280;5107;48.850;8.924;2023-08-17T05:27:01;96930.97;;;20.11;98.81
10135;BME280;5107;48.850;8.924;2023-08-17T05:29:26;96930.22;;;20.22;96.64
10135;BME280;5107;48.850;8.924;2023-08-17T05:31:52;96936.69;;;20.32;97.19
10135;BME280;5107;48.850;8.924;2023-08-17T05:34:17;96938.16;;;20.28;95.84
10135;BME280;5107;48.850;8.924;2023-08-17T05:36:42;96931.16;;;20.27;95.51
10135;BME280;5107;48.850;8.924;2023-08-17T05:39:08;96941.44;;;20.12;95.61
10135;BME280;5107;48.850;8.924;2023-08-17T05:41:34;96942.25;;;20.13;96.34
10135;BME280;5107;48.850;8.924;2023-08-17T05:43:59;96943.47;;;20.17;96.36
10135;BME280;5107;48.850;8.924;2023-08-17T05:46:25;96945.97;;;20.12;96.39
10135;BME280;5107;48.850;8.924;2023-08-17T05:48:50;96947.59;;;20.13;97.25
10135;BME280;5107;48.850;8.924;2023-08-17T05:51:15;96945.88;;;20.18;97.00
10135;BME280;5107;48.850;8.924;2023-08-17T05:53:41;96940.19;;;20.15;97.10
10135;BME280;5107;48.850;8.924;2023-08-17T05:56:06;96948.84;;;20.10;96.37
10135;BME280;5107;48.850;8.924;2023-08-17T05:58:32;96949.38;;;20.00;97.07
10135;BME280;5107;48.850;8.924;2023-08-17T06:01:07;96953.94;;;20.00;97.56
10135;BME280;5107;48.850;8.924;2023-08-17T06:03:34;96956.53;;;20.06;98.64
10135;BME280;5107;48.850;8.924;2023-08-17T06:05:59;96952.13;;;20.12;98.59
10135;BME280;5107;48.850;8.924;2023-08-17T06:08:24;96954.72;;;20.19;98.23
10135;BME280;5107;48.850;8.924;2023-08-17T06:10:50;96957.91;;;20.27;97.46
10135;BME280;5107;48.850;8.924;2023-08-17T06:13:15;96957.09;;;20.27;97.65
10135;BME280;5107;48.850;8.924;2023-08-17T06:15:40;96953.59;;;20.26;97.54
10135;BME280;5107;48.850;8.924;2023-08-17T06:18:06;96956.38;;;20.38;97.31
10135;BME280;5107;48.850;8.924;2023-08-17T06:20:31;96955.63;;;20.31;96.66
10135;BME280;5107;48.850;8.924;2023-08-17T06:22:56;96955.34;;;20.39;97.16
10135;BME280;5107;48.850;8.924;2023-08-17T06:25:21;96955.09;;;20.22;97.46
10135;BME280;5107;48.850;8.924;2023-08-17T06:27:49;96963.25;;;20.27;97.04
10135;BME280;5107;48.850;8.924;2023-08-17T06:30:15;96953.47;;;20.39;97.26
10135;BME280;5107;48.850;8.924;2023-08-17T06:32:41;96956.75;;;20.41;96.35
10135;BME280;5107;48.850;8.924;2023-08-17T06:35:06;96956.06;;;20.46;95.71
10135;BME280;5107;48.850;8.924;2023-08-17T06:37:32;96951.91;;;20.50;96.08
10135;BME280;5107;48.850;8.924;2023-08-17T06:39:57;96959.34;;;20.60;95.83
10135;BME280;5107;48.850;8.924;2023-08-17T06:42:22;96951.13;;;20.61;95.78
10135;BME280;5107;48.850;8.924;2023-08-17T06:44:48;96953.13;;;20.66;96.08
10135;BME280;5107;48.850;8.924;2023-08-17T06:47:13;96953.28;;;20.82;95.97
10135;BME280;5107;48.850;8.924;2023-08-17T06:49:38;96948.91;;;21.00;94.69
10135;BME280;5107;48.850;8.924;2023-08-17T06:52:04;96952.47;;;21.24;93.56
10135;BME280;5107;48.850;8.924;2023-08-17T06:54:30;96952.78;;;21.15;90.54
10135;BME280;5107;48.850;8.924;2023-08-17T06:56:57;96948.06;;;21.29;91.24
10135;BME280;5107;48.850;8.924;2023-08-17T06:59:22;96955.84;;;21.31;91.00
10135;BME280;5107;48.850;8.924;2023-08-17T07:01:48;96954.34;;;21.23;90.81
10135;BME280;5107;48.850;8.924;2023-08-17T07:04:13;96955.16;;;21.24;90.17
10135;BME280;5107;48.850;8.924;2023-08-17T07:06:38;96948.75;;;21.36;91.35
10135;BME280;5107;48.850;8.924;2023-08-17T07:09:04;96958.44;;;21.49;90.22
10135;BME280;5107;48.850;8.924;2023-08-17T07:11:30;96959.72;;;21.58;88.57
10135;BME280;5107;48.850;8.924;2023-08-17T07:13:59;96962.75;;;21.73;89.15
10135;BME280;5107;48.850;8.924;2023-08-17T07:16:24;96966.66;;;21.94;87.64
10135;BME280;5107;48.850;8.924;2023-08-17T07:18:49;96964.03;;;22.06;86.36
10135;BME280;5107;48.850;8.924;2023-08-17T07:21:15;96964.44;;;22.66;83.50
10135;BME280;5107;48.850;8.924;2023-08-17T07:23:44;96972.75;;;23.10;80.39
10135;BME280;5107;48.850;8.924;2023-08-17T07:26:10;96974.13;;;23.12;80.01
10135;BME280;5107;48.850;8.924;2023-08-17T07:28:36;96972.84;;;23.15;78.13
10135;BME280;5107;48.850;8.924;2023-08-17T07:31:01;96967.88;;;23.40;78.91
10135;BME280;5107;48.850;8.924;2023-08-17T07:33:26;96958.63;;;23.64;77.39
10135;BME280;5107;48.850;8.924;2023-08-17T07:35:52;96961.75;;;23.78;77.58
10135;BME280;5107;48.850;8.924;2023-08-17T07:38:18;96974.50;;;23.66;77.41
10135;BME280;5107;48.850;8.924;2023-08-17T07:40:44;96973.50;;;23.38;77.69
10135;BME280;5107;48.850;8.924;2023-08-17T07:43:09;96983.66;;;23.20;77.88
10135;BME280;5107;48.850;8.924;2023-08-17T07:45:34;96970.56;;;23.06;79.07
10135;BME280;5107;48.850;8.924;2023-08-17T07:48:00;96982.75;;;22.97;80.21
10135;BME280;5107;48.850;8.924;2023-08-17T07:50:25;96978.16;;;22.81;81.35
10135;BME280;5107;48.850;8.924;2023-08-17T07:52:50;96977.94;;;22.71;83.26
10135;BME280;5107;48.850;8.924;2023-08-17T07:55:16;96981.09;;;22.96;82.85
10135;BME280;5107;48.850;8.924;2023-08-17T07:57:41;96973.66;;;23.32;80.40
10135;BME280;5107;48.850;8.924;2023-08-17T08:00:07;96975.94;;;23.23;80.23
10135;BME280;5107;48.850;8.924;2023-08-17T08:02:32;96980.66;;;23.33;79.78
10135;BME280;5107;48.850;8.924;2023-08-17T08:04:58;96975.59;;;23.36;79.21
10135;BME280;5107;48.850;8.924;2023-08-17T08:07:23;96970.56;;;23.40;79.85
10135;BME280;5107;48.850;8.924;2023-08-17T08:09:49;96971.06;;;23.37;79.29
10135;BME280;5107;48.850;8.924;2023-08-17T08:12:14;96960.25;;;23.65;77.87
10135;BME280;5107;48.850;8.924;2023-08-17T08:14:39;96959.41;;;24.42;76.53
10135;BME280;5107;48.850;8.924;2023-08-17T08:17:05;96966.41;;;24.65;74.95
10135;BME280;5107;48.850;8.924;2023-08-17T08:19:30;96955.38;;;25.20;72.56
10135;BME280;5107;48.850;8.924;2023-08-17T08:21:57;96967.31;;;25.98;69.87
10135;BME280;5107;48.850;8.924;2023-08-17T08:24:23;96967.31;;;26.50;66.17
10135;BME280;5107;48.850;8.924;2023-08-17T08:26:48;96963.16;;;27.25;65.56
10135;BME280;5107;48.850;8.924;2023-08-17T08:29:13;96962.09;;;27.31;62.07
10135;BME280;5107;48.850;8.924;2023-08-17T08:31:38;96961.03;;;27.58;64.40
10135;BME280;5107;48.850;8.924;2023-08-17T08:34:04;96960.19;;;27.47;64.18
10135;BME280;5107;48.850;8.924;2023-08-17T08:36:29;96964.00;;;27.56;62.95
10135;BME280;5107;48.850;8.924;2023-08-17T08:38:55;96961.00;;;27.63;61.72
10135;BME280;5107;48.850;8.924;2023-08-17T08:41:21;96960.75;;;27.64;63.90
10135;BME280;5107;48.850;8.924;2023-08-17T08:43:47;96946.88;;;28.01;62.84
10135;BME280;5107;48.850;8.924;2023-08-17T08:46:13;96948.63;;;28.46;58.86
10135;BME280;5107;48.850;8.924;2023-08-17T08:48:41;96956.41;;;27.38;61.62
10135;BME280;5107;48.850;8.924;2023-08-17T08:51:08;96953.41;;;27.95;62.13
10135;BME280;5107;48.850;8.924;2023-08-17T08:53:38;96955.53;;;27.98;62.67
10135;BME280;5107;48.850;8.924;2023-08-17T08:56:07;96947.88;;;28.36;63.62
10135;BME280;5107;48.850;8.924;2023-08-17T08:58:36;96944.25;;;29.04;59.97
10135;BME280;5107;48.850;8.924;2023-08-17T09:01:02;96953.00;;;29.69;58.27
10135;BME280;5107;48.850;8.924;2023-08-17T09:03:27;96949.00;;;29.28;59.15
10135;BME280;5107;48.850;8.924;2023-08-17T09:05:55;96942.50;;;29.58;56.78
10135;BME280;5107;48.850;8.924;2023-08-17T09:08:25;96947.94;;;29.87;56.72
10135;BME280;5107;48.850;8.924;2023-08-17T09:10:52;96941.66;;;29.62;55.11
10135;BME280;5107;48.850;8.924;2023-08-17T09:13:17;96946.47;;;29.70;55.87
10135;BME280;5107;48.850;8.924;2023-08-17T09:15:43;96945.94;;;29.34;55.25
10135;BME280;5107;48.850;8.924;2023-08-17T09:18:08;96947.56;;;29.01;58.50
10135;BME280;5107;48.850;8.924;2023-08-17T09:20:45;96943.59;;;29.57;56.74
10135;BME280;5107;48.850;8.924;2023-08-17T09:23:16;96945.25;;;29.81;56.19
10135;BME280;5107;48.850;8.924;2023-08-17T09:25:43;96947.44;;;29.79;56.14
10135;BME280;5107;48.850;8.924;2023-08-17T09:28:18;96948.88;;;29.43;56.32
10135;BME280;5107;48.850;8.924;2023-08-17T09:33:16;96952.16;;;28.47;59.05
10135;BME280;5107;48.850;8.924;2023-08-17T09:35:42;96953.84;;;28.33;59.73
10135;BME280;5107;48.850;8.924;2023-08-17T09:38:07;96942.25;;;28.81;58.33
10135;BME280;5107;48.850;8.924;2023-08-17T09:40:33;96942.47;;;29.29;60.16
10135;BME280;5107;48.850;8.924;2023-08-17T09:42:58;96951.63;;;29.38;56.22
10135;BME280;5107;48.850;8.924;2023-08-17T09:45:24;96942.41;;;29.34;57.63
10135;BME280;5107;48.850;8.924;2023-08-17T09:47:50;96952.41;;;29.43;55.27
10135;BME280;5107;48.850;8.924;2023-08-17T09:50:15;96942.28;;;29.20;57.46
10135;BME280;5107;48.850;8.924;2023-08-17T09:52:41;96942.69;;;28.98;58.16
10135;BME280;5107;48.850;8.924;2023-08-17T09:55:07;96938.13;;;28.89;58.45
10135;BME280;5107;48.850;8.924;2023-08-17T09:57:33;96931.25;;;29.46;59.14
10135;BME280;5107;48.850;8.924;2023-08-17T09:59:59;96933.78;;;29.95;57.46
10135;BME280;5107;48.850;8.924;2023-08-17T10:02:25;96931.69;;;29.81;55.13
10135;BME280;5107;48.850;8.924;2023-08-17T10:04:53;96928.16;;;29.81;54.73
10135;BME280;5107;48.850;8.924;2023-08-17T10:07:24;96925.16;;;30.11;53.88
10135;BME280;5107;48.850;8.924;2023-08-17T10:09:58;96929.41;;;30.84;53.22
10135;BME280;5107;48.850;8.924;2023-08-17T10:12:27;96922.72;;;30.95;53.20
10135;BME280;5107;48.850;8.924;2023-08-17T10:14:59;96920.72;;;31.01;53.76
10135;BME280;5107;48.850;8.924;2023-08-17T10:17:27;96932.75;;;31.32;54.11
10135;BME280;5107;48.850;8.924;2023-08-17T10:19:59;96927.69;;;31.58;52.05
10135;BME280;5107;48.850;8.924;2023-08-17T10:22:32;96930.81;;;31.51;53.58
10135;BME280;5107;48.850;8.924;2023-08-17T10:25:00;96922.53;;;31.56;53.53
10135;BME280;5107;48.850;8.924;2023-08-17T10:27:26;96928.66;;;31.48;53.13
10135;BME280;5107;48.850;8.924;2023-08-17T10:29:52;96931.38;;;31.67;53.01
10135;BME280;5107;48.850;8.924;2023-08-17T10:32:21;96939.53;;;31.67;52.21
10135;BME280;5107;48.850;8.924;2023-08-17T10:34:48;96932.03;;;31.26;51.67
10135;BME280;5107;48.850;8.924;2023-08-17T10:37:14;96928.06;;;31.00;52.94
10135;BME280;5107;48.850;8.924;2023-08-17T10:39:45;96931.25;;;30.22;55.62
10135;BME280;5107;48.850;8.924;2023-08-17T10:42:10;96920.91;;;30.24;55.89
10135;BME280;5107;48.850;8.924;2023-08-17T10:44:48;96919.25;;;30.28;53.21
10135;BME280;5107;48.850;8.924;2023-08-17T10:47:30;96924.69;;;30.47;53.55
10135;BME280;5107;48.850;8.924;2023-08-17T10:49:58;96924.63;;;30.76;54.00
10135;BME280;5107;48.850;8.924;2023-08-17T10:54:56;96918.44;;;30.89;54.27
10135;BME280;5107;48.850;8.924;2023-08-17T10:57:38;96917.94;;;30.87;50.91
10135;BME280;5107;48.850;8.924;2023-08-17T11:00:24;96916.84;;;31.39;53.68
10135;BME280;5107;48.850;8.924;2023-08-17T11:03:01;96914.09;;;31.25;51.78
10135;BME280;5107;48.850;8.924;2023-08-17T11:05:44;96918.44;;;30.89;52.40
10135;BME280;5107;48.850;8.924;2023-08-17T11:08:12;96914.75;;;30.99;53.48
10135;BME280;5107;48.850;8.924;2023-08-17T11:10:48;96906.50;;;30.71;53.44
10135;BME280;5107;48.850;8.924;2023-08-17T11:13:22;96912.66;;;30.77;54.08
10135;BME280;5107;48.850;8.924;2023-08-17T11:15:48;96911.91;;;30.90;54.08
10135;BME280;5107;48.850;8.924;2023-08-17T11:18:14;96914.53;;;30.58;54.00
10135;BME280;5107;48.850;8.924;2023-08-17T11:20:41;96908.31;;;30.33;56.82
10135;BME280;5107;48.850;8.924;2023-08-17T11:23:08;96916.25;;;30.48;58.10
10135;BME280;5107;48.850;8.924;2023-08-17T11:25:34;96912.22;;;30.70;56.95
10135;BME280;5107;48.850;8.924;2023-08-17T11:28:03;96911.09;;;30.52;55.04
10135;BME280;5107;48.850;8.924;2023-08-17T11:30:29;96919.16;;;30.57;54.57
10135;BME280;5107;48.850;8.924;2023-08-17T11:32:55;96922.28;;;30.69;56.81
10135;BME280;5107;48.850;8.924;2023-08-17T11:35:21;96925.34;;;31.00;56.63
10135;BME280;5107;48.850;8.924;2023-08-17T11:37:48;96932.25;;;30.92;55.05
10135;BME280;5107;48.850;8.924;2023-08-17T11:40:14;96928.44;;;30.32;55.86
10135;BME280;5107;48.850;8.924;2023-08-17T11:42:40;96921.69;;;30.06;58.24
10135;BME280;5107;48.850;8.924;2023-08-17T11:45:06;96912.94;;;29.85;60.66
10135;BME280;5107;48.850;8.924;2023-08-17T11:47:35;96921.19;;;29.75;61.10
10135;BME280;5107;48.850;8.924;2023-08-17T11:50:03;96928.88;;;30.39;62.03
10135;BME280;5107;48.850;8.924;2023-08-17T11:52:30;96929.50;;;30.55;59.36
10135;BME280;5107;48.850;8.924;2023-08-17T11:54:59;96918.53;;;30.41;59.07
10135;BME280;5107;48.850;8.924;2023-08-17T11:57:25;96925.94;;;31.16;56.08
10135;BME280;5107;48.850;8.924;2023-08-17T11:59:57;96927.97;;;31.75;55.77
10135;BME280;5107;48.850;8.924;2023-08-17T12:02:23;96930.41;;;31.58;54.81
10135;BME280;5107;48.850;8.924;2023-08-17T12:04:50;96928.59;;;31.99;53.89
10135;BME280;5107;48.850;8.924;2023-08-17T12:07:15;96935.06;;;31.25;55.26
10135;BME280;5107;48.850;8.924;2023-08-17T12:09:45;96943.81;;;31.03;55.90
10135;BME280;5107;48.850;8.924;2023-08-17T12:12:11;96940.19;;;30.89;55.91
10135;BME280;5107;48.850;8.924;2023-08-17T12:14:41;96940.53;;;30.64;57.01
10135;BME280;5107;48.850;8.924;2023-08-17T12:17:07;96941.97;;;30.37;57.89
10135;BME280;5107;48.850;8.924;2023-08-17T12:19:33;96942.31;;;29.78;59.34
10135;BME280;5107;48.850;8.924;2023-08-17T12:21:58;96947.97;;;29.19;61.51
10135;BME280;5107;48.850;8.924;2023-08-17T12:24:24;96957.53;;;29.06;61.97
10135;BME280;5107;48.850;8.924;2023-08-17T12:26:49;96963.94;;;28.71;62.46
10135;BME280;5107;48.850;8.924;2023-08-17T12:29:15;96968.78;;;28.25;64.75
10135;BME280;5107;48.850;8.924;2023-08-17T12:31:40;96969.91;;;27.93;65.46
10135;BME280;5107;48.850;8.924;2023-08-17T12:34:06;96965.91;;;27.55;67.32
10135;BME280;5107;48.850;8.924;2023-08-17T12:36:32;96954.53;;;27.33;68.51
10135;BME280;5107;48.850;8.924;2023-08-17T12:38:58;96958.22;;;26.87;70.55
10135;BME280;5107;48.850;8.924;2023-08-17T12:41:23;96976.38;;;26.29;71.82
10135;BME280;5107;48.850;8.924;2023-08-17T12:43:49;96988.91;;;26.03;73.23
10135;BME280;5107;48.850;8.924;2023-08-17T12:46:14;96978.84;;;25.88;75.51
10135;BME280;5107;48.850;8.924;2023-08-17T12:48:39;96973.13;;;25.80;76.59
10135;BME280;5107;48.850;8.924;2023-08-17T12:51:05;96973.84;;;25.70;78.46
10135;BME280;5107;48.850;8.924;2023-08-17T12:53:30;96978.56;;;25.53;79.48
10135;BME280;5107;48.850;8.924;2023-08-17T12:55:56;96978.69;;;25.36;79.94
10135;BME280;5107;48.850;8.924;2023-08-17T12:58:21;96963.69;;;25.13;80.92
10135;BME280;5107;48.850;8.924;2023-08-17T13:00:47;96966.47;;;24.97;81.30
10135;BME280;5107;48.850;8.924;2023-08-17T13:03:15;96961.53;;;24.88;81.34
10135;BME280;5107;48.850;8.924;2023-08-17T13:05:41;96961.63;;;24.72;80.70
10135;BME280;5107;48.850;8.924;2023-08-17T13:08:06;96966.84;;;24.56;81.38
10135;BME280;5107;48.850;8.924;2023-08-17T13:10:31;96961.06;;;24.43;81.87
10135;BME280;5107;48.850;8.924;2023-08-17T13:12:57;96958.81;;;24.35;81.69